sensor_id;sensor_type;location;lat;lon;timestamp;temperature;humidity
20654;DHT22;21083;50.898;4.902;2023-03-04T00:00:29;7.30;99.90
20654;DHT22;21083;50.898;4.902;2023-03-04T00:02:56;7.30;99.90
20654;DHT22;21083;50.898;4.902;2023-03-04T00:05:23;7.30;99.90
20654;DHT22;21083;50.898;4.902;2023-03-04T00:07:49;7.30;99.90
20654;DHT22;21083;50.898;4.902;2023-03-04T00:10:17;7.30;99.90
20654;DHT22;21083;50.898;4.902;2023-03-04T00:12:44;7.20;99.90
20654;DHT22;21083;50.898;4.902;2023-03-04T00:15:12;7.20;99.90
20654;DHT22;21083;50.898;4.902;2023-03-04T00:17:39;7.20;99.90
20654;DHT22;21083;50.898;4.902;2023-03-04T00:20:07;7.20;99.90
20654;DHT22;21083;50.898;4.902;2023-03-04T00:22:35;7.20;99.90
20654;DHT22;21083;50.898;4.902;2023-03-04T00:25:02;7.20;99.90
20654;DHT22;21083;50.898;4.902;2023-03-04T00:27:29;7.10;99.90
20654;DHT22;21083;50.898;4.902;2023-03-04T00:29:56;7.20;99.90
20654;DHT22;21083;50.898;4.902;2023-03-04T00:32:24;7.20;99.90
20654;DHT22;21083;50.898;4.902;2023-03-04T00:34:51;7.20;99.90
20654;DHT22;21083;50.898;4.902;2023-03-04T00:37:18;7.10;99.90
20654;DHT22;21083;50.898;4.902;2023-03-04T00:39:45;7.20;99.90
20654;DHT22;21083;50.898;4.902;2023-03-04T00:42:12;7.20;99.90
20654;DHT22;21083;50.898;4.902;2023-03-04T00:44:39;7.30;99.90
20654;DHT22;21083;50.898;4.902;2023-03-04T00:47:06;7.20;99.90
20654;DHT22;21083;50.898;4.902;2023-03-04T00:49:34;7.20;99.90
20654;DHT22;21083;50.898;4.902;2023-03-04T00:52:02;7.20;99.90
20654;DHT22;21083;50.898;4.902;2023-03-04T00:54:29;7.00;99.90
20654;DHT22;21083;50.898;4.902;2023-03-04T00:56:56;7.00;99.90
20654;DHT22;21083;50.898;4.902;2023-03-04T00:59:23;7.10;99.90
20654;DHT22;21083;50.898;4.902;2023-03-04T01:01:50;7.10;99.90
20654;DHT22;21083;50.898;4.902;2023-03-04T01:04:17;7.00;99.90
20654;DHT22;21083;50.898;4.902;2023-03-04T01:06:45;7.10;99.90
20654;DHT22;21083;50.898;4.902;2023-03-04T01:09:12;7.10;99.90
20654;DHT22;21083;50.898;4.902;2023-03-04T01:11:40;7.00;99.90
20654;DHT22;21083;50.898;4.902;2023-03-04T01:14:07;7.00;99.90
20654;DHT22;21083;50.898;4.902;2023-03-04T01:16:34;7.10;99.90
20654;DHT22;21083;50.898;4.902;2023-03-04T01:19:01;7.10;99.90
20654;DHT22;21083;50.898;4.902;2023-03-04T01:21:28;7.10;99.90
20654;DHT22;21083;50.898;4.902;2023-03-04T01:23:57;7.10;99.90
20654;DHT22;21083;50.898;4.902;2023-03-04T01:26:25;7.10;99.90
20654;DHT22;21083;50.898;4.902;2023-03-04T01:28:52;7.10;99.90
20654;DHT22;21083;50.898;4.902;2023-03-04T01:31:19;7.10;99.90
20654;DHT22;21083;50.898;4.902;2023-03-04T01:33:46;7.00;99.90
20654;DHT22;21083;50.898;4.902;2023-03-04T01:36:14;7.00;99.90
20654;DHT22;21083;50.898;4.902;2023-03-04T01:38:41;7.00;99.90
20654;DHT22;21083;50.898;4.902;2023-03-04T01:41:16;7.00;99.90
20654;DHT22;21083;50.898;4.902;2023-03-04T01:43:45;7.00;99.90
20654;DHT22;21083;50.898;4.902;2023-03-04T01:46:13;7.00;99.90
20654;DHT22;21083;50.898;4.902;2023-03-04T01:48:43;7.00;99.90
20654;DHT22;21083;50.898;4.902;2023-03-04T01:51:13;7.00;99.90
20654;DHT22;21083;50.898;4.902;2023-03-04T01:53:41;7.00;99.90
20654;DHT22;21083;50.898;4.902;2023-03-04T01:56:15;7.00;99.90
20654;DHT22;21083;50.898;4.902;2023-03-04T01:58:49;7.00;99.90
20654;DHT22;21083;50.898;4.902;2023-03-04T02:01:35;6.90;99.90
20654;DHT22;21083;50.898;4.902;2023-03-04T02:04:03;6.90;99.90
20654;DHT22;21083;50.898;4.902;2023-03-04T02:06:30;6.90;99.90
20654;DHT22;21083;50.898;4.902;2023-03-04T02:09:00;6.90;99.90
20654;DHT22;21083;50.898;4.902;2023-03-04T02:11:31;6.90;99.90
20654;DHT22;21083;50.898;4.902;2023-03-04T02:13:59;6.90;99.90
20654;DHT22;21083;50.898;4.902;2023-03-04T02:16:28;6.90;99.90
20654;DHT22;21083;50.898;4.902;2023-03-04T02:18:56;6.90;99.90
20654;DHT22;21083;50.898;4.902;2023-03-04T02:21:25;6.90;99.90
20654;DHT22;21083;50.898;4.902;2023-03-04T02:23:59;6.90;99.90
20654;DHT22;21083;50.898;4.902;2023-03-04T02:26:30;6.80;99.90
20654;DHT22;21083;50.898;4.902;2023-03-04T02:29:00;6.90;99.90
20654;DHT22;21083;50.898;4.902;2023-03-04T02:31:31;6.80;99.90
20654;DHT22;21083;50.898;4.902;2023-03-04T02:34:04;6.90;99.90
20654;DHT22;21083;50.898;4.902;2023-03-04T02:36:33;6.90;99.90
20654;DHT22;21083;50.898;4.902;2023-03-04T02:39:06;6.90;99.90
20654;DHT22;21083;50.898;4.902;2023-03-04T02:41:35;6.90;99.90
20654;DHT22;21083;50.898;4.902;2023-03-04T02:44:08;6.80;99.90
20654;DHT22;21083;50.898;4.902;2023-03-04T02:46:37;6.90;99.90
20654;DHT22;21083;50.898;4.902;2023-03-04T02:49:05;6.90;99.90
20654;DHT22;21083;50.898;4.902;2023-03-04T02:51:33;6.90;99.90
20654;DHT22;21083;50.898;4.902;2023-03-04T02:54:00;6.90;99.90
20654;DHT22;21083;50.898;4.902;2023-03-04T02:56:29;6.80;99.90
20654;DHT22;21083;50.898;4.902;2023-03-04T02:58:59;6.90;99.90
20654;DHT22;21083;50.898;4.902;2023-03-04T03:01:32;6.90;99.90
20654;DHT22;21083;50.898;4.902;2023-03-04T03:03:59;6.90;99.90
20654;DHT22;21083;50.898;4.902;2023-03-04T03:06:27;6.90;99.90
20654;DHT22;21083;50.898;4.902;2023-03-04T03:09:00;6.80;99.90
20654;DHT22;21083;50.898;4.902;2023-03-04T03:11:28;6.80;99.90
20654;DHT22;21083;50.898;4.902;2023-03-04T03:14:00;6.80;99.90
20654;DHT22;21083;50.898;4.902;2023-03-04T03:16:27;6.90;99.90
20654;DHT22;21083;50.898;4.902;2023-03-04T03:18:55;6.90;99.90
20654;DHT22;21083;50.898;4.902;2023-03-04T03:21:22;6.90;99.90
20654;DHT22;21083;50.898;4.902;2023-03-04T03:23:49;6.90;99.90
20654;DHT22;21083;50.898;4.902;2023-03-04T03:26:16;6.80;99.90
20654;DHT22;21083;50.898;4.902;2023-03-04T03:28:44;6.80;99.90
20654;DHT22;21083;50.898;4.902;2023-03-04T03:31:12;6.80;99.90
20654;DHT22;21083;50.898;4.902;2023-03-04T03:33:40;6.80;99.90
20654;DHT22;21083;50.898;4.902;2023-03-04T03:36:08;6.80;99.90
20654;DHT22;21083;50.898;4.902;2023-03-04T03:38:35;6.80;99.90
20654;DHT22;21083;50.898;4.902;2023-03-04T03:41:07;6.80;99.90
20654;DHT22;21083;50.898;4.902;2023-03-04T03:43:40;6.80;99.90
20654;DHT22;21083;50.898;4.902;2023-03-04T03:46:14;6.80;99.90
20654;DHT22;21083;50.898;4.902;2023-03-04T03:48:42;6.80;99.90
20654;DHT22;21083;50.898;4.902;2023-03-04T03:51:10;6.80;99.90
20654;DHT22;21083;50.898;4.902;2023-03-04T03:53:38;6.80;99.90
20654;DHT22;21083;50.898;4.902;2023-03-04T03:56:06;6.80;99.90
20654;DHT22;21083;50.898;4.902;2023-03-04T03:58:35;6.80;99.90
20654;DHT22;21083;50.898;4.902;2023-03-04T04:01:03;6.80;99.90
20654;DHT22;21083;50.898;4.902;2023-03-04T04:03:32;6.80;99.90
20654;DHT22;21083;50.898;4.902;2023-03-04T04:06:00;6.70;99.90
20654;DHT22;21083;50.898;4.902;2023-03-04T04:08:28;6.80;99.90
20654;DHT22;21083;50.898;4.902;2023-03-04T04:10:55;6.80;99.90
20654;DHT22;21083;50.898;4.902;2023-03-04T04:13:22;6.80;99.90
20654;DHT22;21083;50.898;4.902;2023-03-04T04:15:50;6.80;99.90
20654;DHT22;21083;50.898;4.902;2023-03-04T04:18:19;6.80;99.90
20654;DHT22;21083;50.898;4.902;2023-03-04T04:20:48;6.80;99.90
20654;DHT22;21083;50.898;4.902;2023-03-04T04:23:15;6.80;99.90
20654;DHT22;21083;50.898;4.902;2023-03-04T04:25:44;6.70;99.90
20654;DHT22;21083;50.898;4.902;2023-03-04T04:28:14;6.80;99.90
20654;DHT22;21083;50.898;4.902;2023-03-04T04:30:42;6.80;99.90
20654;DHT22;21083;50.898;4.902;2023-03-04T04:33:09;6.80;99.90
20654;DHT22;21083;50.898;4.902;2023-03-04T04:35:40;6.80;99.90
20654;DHT22;21083;50.898;4.902;2023-03-04T04:38:10;6.80;99.90
20654;DHT22;21083;50.898;4.902;2023-03-04T04:40:38;6.80;99.90
20654;DHT22;21083;50.898;4.902;2023-03-04T04:43:05;6.80;99.90
20654;DHT22;21083;50.898;4.902;2023-03-04T04:45:32;6.70;99.90
20654;DHT22;21083;50.898;4.902;2023-03-04T04:47:59;6.70;99.90
20654;DHT22;21083;50.898;4.902;2023-03-04T04:50:27;6.80;99.90
20654;DHT22;21083;50.898;4.902;2023-03-04T04:52:54;6.70;99.90
20654;DHT22;21083;50.898;4.902;2023-03-04T04:55:23;6.70;99.90
20654;DHT22;21083;50.898;4.902;2023-03-04T04:57:50;6.70;99.90
20654;DHT22;21083;50.898;4.902;2023-03-04T05:00:18;6.70;99.90
20654;DHT22;21083;50.898;4.902;2023-03-04T05:02:45;6.80;99.90
20654;DHT22;21083;50.898;4.902;2023-03-04T05:05:12;6.70;99.90
20654;DHT22;21083;50.898;4.902;2023-03-04T05:07:39;6.70;99.90
20654;DHT22;21083;50.898;4.902;2023-03-04T05:10:07;6.70;99.90
20654;DHT22;21083;50.898;4.902;2023-03-04T05:12:37;6.70;99.90
20654;DHT22;21083;50.898;4.902;2023-03-04T05:15:05;6.70;99.90
20654;DHT22;21083;50.898;4.902;2023-03-04T05:17:32;6.70;99.90
20654;DHT22;21083;50.898;4.902;2023-03-04T05:19:59;6.70;99.90
20654;DHT22;21083;50.898;4.902;2023-03-04T05:22:26;6.70;99.90
20654;DHT22;21083;50.898;4.902;2023-03-04T05:24:53;6.70;99.90
20654;DHT22;21083;50.898;4.902;2023-03-04T05:27:21;6.70;99.90
20654;DHT22;21083;50.898;4.902;2023-03-04T05:29:50;6.70;99.90
20654;DHT22;21083;50.898;4.902;2023-03-04T05:32:17;6.70;99.90
20654;DHT22;21083;50.898;4.902;2023-03-04T05:34:44;6.70;99.90
20654;DHT22;21083;50.898;4.902;2023-03-04T05:37:11;6.70;99.90
20654;DHT22;21083;50.898;4.902;2023-03-04T05:39:39;6.60;99.90
20654;DHT22;21083;50.898;4.902;2023-03-04T05:42:06;6.70;99.90
20654;DHT22;21083;50.898;4.902;2023-03-04T05:44:33;6.60;99.90
20654;DHT22;21083;50.898;4.902;2023-03-04T05:47:01;6.60;99.90
20654;DHT22;21083;50.898;4.902;2023-03-04T05:49:28;6.70;99.90
20654;DHT22;21083;50.898;4.902;2023-03-04T05:51:55;6.50;99.90
20654;DHT22;21083;50.898;4.902;2023-03-04T05:54:22;6.60;99.90
20654;DHT22;21083;50.898;4.902;2023-03-04T05:56:49;6.60;99.90
20654;DHT22;21083;50.898;4.902;2023-03-04T05:59:16;6.60;99.90
20654;DHT22;21083;50.898;4.902;2023-03-04T06:01:45;6.60;99.90
20654;DHT22;21083;50.898;4.902;2023-03-04T06:04:13;6.60;99.90
20654;DHT22;21083;50.898;4.902;2023-03-04T06:06:40;6.60;99.90
20654;DHT22;21083;50.898;4.902;2023-03-04T06:09:07;6.60;99.90
20654;DHT22;21083;50.898;4.902;2023-03-04T06:11:34;6.60;99.90
20654;DHT22;21083;50.898;4.902;2023-03-04T06:14:01;6.60;99.90
20654;DHT22;21083;50.898;4.902;2023-03-04T06:16:28;6.60;99.90
20654;DHT22;21083;50.898;4.902;2023-03-04T06:18:55;6.60;99.90
20654;DHT22;21083;50.898;4.902;2023-03-04T06:21:24;6.70;99.90
20654;DHT22;21083;50.898;4.902;2023-03-04T06:23:51;6.70;99.90
20654;DHT22;21083;50.898;4.902;2023-03-04T06:26:17;6.70;99.90
20654;DHT22;21083;50.898;4.902;2023-03-04T06:28:44;6.70;99.90
20654;DHT22;21083;50.898;4.902;2023-03-04T06:31:11;6.70;99.90
20654;DHT22;21083;50.898;4.902;2023-03-04T06:33:38;6.70;99.90
20654;DHT22;21083;50.898;4.902;2023-03-04T06:36:06;6.70;99.90
20654;DHT22;21083;50.898;4.902;2023-03-04T06:38:35;6.60;99.90
20654;DHT22;21083;50.898;4.902;2023-03-04T06:41:06;6.60;99.90
20654;DHT22;21083;50.898;4.902;2023-03-04T06:43:34;6.60;99.90
20654;DHT22;21083;50.898;4.902;2023-03-04T06:46:01;6.70;99.90
20654;DHT22;21083;50.898;4.902;2023-03-04T06:48:28;6.80;99.90
20654;DHT22;21083;50.898;4.902;2023-03-04T06:50:55;6.70;99.90
20654;DHT22;21083;50.898;4.902;2023-03-04T06:53:22;6.70;99.90
20654;DHT22;21083;50.898;4.902;2023-03-04T06:55:50;6.70;99.90
20654;DHT22;21083;50.898;4.902;2023-03-04T06:58:17;6.70;99.90
20654;DHT22;21083;50.898;4.902;2023-03-04T07:00:44;6.70;99.90
20654;DHT22;21083;50.898;4.902;2023-03-04T07:03:11;6.80;99.90
20654;DHT22;21083;50.898;4.902;2023-03-04T07:05:38;6.80;99.90
20654;DHT22;21083;50.898;4.902;2023-03-04T07:08:05;6.80;99.90
20654;DHT22;21083;50.898;4.902;2023-03-04T07:10:32;6.80;99.90
20654;DHT22;21083;50.898;4.902;2023-03-04T07:13:01;6.80;99.90
20654;DHT22;21083;50.898;4.902;2023-03-04T07:15:28;6.90;99.90
20654;DHT22;21083;50.898;4.902;2023-03-04T07:17:55;6.80;99.90
20654;DHT22;21083;50.898;4.902;2023-03-04T07:20:22;6.80;99.90
20654;DHT22;21083;50.898;4.902;2023-03-04T07:22:49;6.90;99.90
20654;DHT22;21083;50.898;4.902;2023-03-04T07:25:16;6.90;99.90
20654;DHT22;21083;50.898;4.902;2023-03-04T07:27:43;6.90;99.90
20654;DHT22;21083;50.898;4.902;2023-03-04T07:30:12;7.00;99.90
20654;DHT22;21083;50.898;4.902;2023-03-04T07:32:39;7.00;99.90
20654;DHT22;21083;50.898;4.902;2023-03-04T07:35:07;7.00;99.90
20654;DHT22;21083;50.898;4.902;2023-03-04T07:37:34;7.00;99.90
20654;DHT22;21083;50.898;4.902;2023-03-04T07:40:01;7.00;99.90
20654;DHT22;21083;50.898;4.902;2023-03-04T07:42:28;7.00;99.90
20654;DHT22;21083;50.898;4.902;2023-03-04T07:44:55;7.10;99.90
20654;DHT22;21083;50.898;4.902;2023-03-04T07:47:23;7.00;99.90
20654;DHT22;21083;50.898;4.902;2023-03-04T07:49:50;7.00;99.90
20654;DHT22;21083;50.898;4.902;2023-03-04T07:52:17;7.10;99.90
20654;DHT22;21083;50.898;4.902;2023-03-04T07:54:44;7.10;99.90
20654;DHT22;21083;50.898;4.902;2023-03-04T07:57:11;7.10;99.90
20654;DHT22;21083;50.898;4.902;2023-03-04T07:59:38;7.20;99.90
20654;DHT22;21083;50.898;4.902;2023-03-04T08:02:06;7.20;99.90
20654;DHT22;21083;50.898;4.902;2023-03-04T08:04:36;7.30;99.90
20654;DHT22;21083;50.898;4.902;2023-03-04T08:07:03;7.30;99.90
20654;DHT22;21083;50.898;4.902;2023-03-04T08:09:30;7.20;99.90
20654;DHT22;21083;50.898;4.902;2023-03-04T08:11:57;7.20;99.90
20654;DHT22;21083;50.898;4.902;2023-03-04T08:14:24;7.30;99.90
20654;DHT22;21083;50.898;4.902;2023-03-04T08:16:50;7.30;99.90
20654;DHT22;21083;50.898;4.902;2023-03-04T08:19:17;7.30;99.90
20654;DHT22;21083;50.898;4.902;2023-03-04T08:21:46;7.40;99.90
20654;DHT22;21083;50.898;4.902;2023-03-04T08:24:13;7.40;99.90
20654;DHT22;21083;50.898;4.902;2023-03-04T08:26:42;7.40;99.90
20654;DHT22;21083;50.898;4.902;2023-03-04T08:29:11;7.40;99.90
20654;DHT22;21083;50.898;4.902;2023-03-04T08:31:39;7.40;99.90
20654;DHT22;21083;50.898;4.902;2023-03-04T08:34:06;7.40;99.90
20654;DHT22;21083;50.898;4.902;2023-03-04T08:36:35;7.40;99.90
20654;DHT22;21083;50.898;4.902;2023-03-04T08:39:04;7.50;99.90
20654;DHT22;21083;50.898;4.902;2023-03-04T08:41:31;7.50;99.90
20654;DHT22;21083;50.898;4.902;2023-03-04T08:43:59;7.50;99.90
20654;DHT22;21083;50.898;4.902;2023-03-04T08:46:28;7.40;99.90
20654;DHT22;21083;50.898;4.902;2023-03-04T08:48:57;7.40;99.90
20654;DHT22;21083;50.898;4.902;2023-03-04T08:51:24;7.50;99.90
20654;DHT22;21083;50.898;4.902;2023-03-04T08:53:51;7.50;99.90
20654;DHT22;21083;50.898;4.902;2023-03-04T08:56:22;7.50;99.90
20654;DHT22;21083;50.898;4.902;2023-03-04T08:58:55;7.50;99.90
20654;DHT22;21083;50.898;4.902;2023-03-04T09:01:27;7.60;99.90
20654;DHT22;21083;50.898;4.902;2023-03-04T09:03:56;7.60;99.90
20654;DHT22;21083;50.898;4.902;2023-03-04T09:06:24;7.60;99.90
20654;DHT22;21083;50.898;4.902;2023-03-04T09:08:51;7.60;99.90
20654;DHT22;21083;50.898;4.902;2023-03-04T09:11:22;7.70;99.90
20654;DHT22;21083;50.898;4.902;2023-03-04T09:13:49;7.70;99.90
20654;DHT22;21083;50.898;4.902;2023-03-04T09:16:16;7.80;99.90
20654;DHT22;21083;50.898;4.902;2023-03-04T09:18:43;7.80;99.90
20654;DHT22;21083;50.898;4.902;2023-03-04T09:21:11;7.70;99.90
20654;DHT22;21083;50.898;4.902;2023-03-04T09:23:38;7.80;99.90
20654;DHT22;21083;50.898;4.902;2023-03-04T09:26:20;7.80;99.90
20654;DHT22;21083;50.898;4.902;2023-03-04T09:28:50;7.80;99.90
20654;DHT22;21083;50.898;4.902;2023-03-04T09:31:18;7.80;99.90
20654;DHT22;21083;50.898;4.902;2023-03-04T09:33:48;7.90;99.90
20654;DHT22;21083;50.898;4.902;2023-03-04T09:36:15;8.00;99.90
20654;DHT22;21083;50.898;4.902;2023-03-04T09:38:43;8.00;99.90
20654;DHT22;21083;50.898;4.902;2023-03-04T09:41:15;8.00;99.90
20654;DHT22;21083;50.898;4.902;2023-03-04T09:43:43;8.00;99.90
20654;DHT22;21083;50.898;4.902;2023-03-04T09:46:14;8.00;99.90
20654;DHT22;21083;50.898;4.902;2023-03-04T09:48:44;7.90;99.90
20654;DHT22;21083;50.898;4.902;2023-03-04T09:51:21;7.90;99.90
20654;DHT22;21083;50.898;4.902;2023-03-04T09:53:58;7.90;99.90
20654;DHT22;21083;50.898;4.902;2023-03-04T09:56:27;8.10;99.90
20654;DHT22;21083;50.898;4.902;2023-03-04T09:59:04;8.20;99.90
20654;DHT22;21083;50.898;4.902;2023-03-04T10:01:37;8.20;99.90
20654;DHT22;21083;50.898;4.902;2023-03-04T10:04:12;8.20;99.90
20654;DHT22;21083;50.898;4.902;2023-03-04T10:06:42;8.10;99.90
20654;DHT22;21083;50.898;4.902;2023-03-04T10:09:14;7.80;99.90
20654;DHT22;21083;50.898;4.902;2023-03-04T10:11:45;7.70;99.90
20654;DHT22;21083;50.898;4.902;2023-03-04T10:14:32;7.80;99.90
20654;DHT22;21083;50.898;4.902;2023-03-04T10:17:07;7.80;99.90
20654;DHT22;21083;50.898;4.902;2023-03-04T10:19:50;7.90;99.90
20654;DHT22;21083;50.898;4.902;2023-03-04T10:22:27;7.80;99.90
20654;DHT22;21083;50.898;4.902;2023-03-04T10:24:58;7.80;99.90
20654;DHT22;21083;50.898;4.902;2023-03-04T10:27:26;7.90;99.90
20654;DHT22;21083;50.898;4.902;2023-03-04T10:29:58;8.10;99.90
20654;DHT22;21083;50.898;4.902;2023-03-04T10:32:28;8.10;99.90
20654;DHT22;21083;50.898;4.902;2023-03-04T10:34:55;8.40;99.90
20654;DHT22;21083;50.898;4.902;2023-03-04T10:37:42;8.80;99.90
20654;DHT22;21083;50.898;4.902;2023-03-04T10:40:18;9.10;99.90
20654;DHT22;21083;50.898;4.902;2023-03-04T10:42:48;9.40;99.90
20654;DHT22;21083;50.898;4.902;2023-03-04T10:45:22;9.40;99.90
20654;DHT22;21083;50.898;4.902;2023-03-04T10:47:54;9.50;99.90
20654;DHT22;21083;50.898;4.902;2023-03-04T10:50:25;9.70;99.90
20654;DHT22;21083;50.898;4.902;2023-03-04T10:52:54;9.80;99.90
20654;DHT22;21083;50.898;4.902;2023-03-04T10:55:23;9.80;99.90
20654;DHT22;21083;50.898;4.902;2023-03-04T10:57:54;9.50;99.90
20654;DHT22;21083;50.898;4.902;2023-03-04T11:00:31;9.20;99.90
20654;DHT22;21083;50.898;4.902;2023-03-04T11:03:21;9.20;99.90
20654;DHT22;21083;50.898;4.902;2023-03-04T11:05:49;8.80;99.90
20654;DHT22;21083;50.898;4.902;2023-03-04T11:08:20;8.60;99.90
20654;DHT22;21083;50.898;4.902;2023-03-04T11:10:48;8.70;99.90
20654;DHT22;21083;50.898;4.902;2023-03-04T11:13:18;8.90;99.90
20654;DHT22;21083;50.898;4.902;2023-03-04T11:15:49;8.90;99.90
20654;DHT22;21083;50.898;4.902;2023-03-04T11:18:21;8.80;99.90
20654;DHT22;21083;50.898;4.902;2023-03-04T11:20:53;8.80;99.90
20654;DHT22;21083;50.898;4.902;2023-03-04T11:23:25;8.70;99.90
20654;DHT22;21083;50.898;4.902;2023-03-04T11:26:00;8.60;99.90
20654;DHT22;21083;50.898;4.902;2023-03-04T11:28:36;8.80;99.90
20654;DHT22;21083;50.898;4.902;2023-03-04T11:31:11;9.10;99.90
20654;DHT22;21083;50.898;4.902;2023-03-04T11:33:45;9.40;99.90
20654;DHT22;21083;50.898;4.902;2023-03-04T11:36:27;9.60;99.90
20654;DHT22;21083;50.898;4.902;2023-03-04T11:38:56;9.80;99.90
20654;DHT22;21083;50.898;4.902;2023-03-04T11:41:27;10.00;99.90
20654;DHT22;21083;50.898;4.902;2023-03-04T11:43:57;9.80;99.90
20654;DHT22;21083;50.898;4.902;2023-03-04T11:46:46;9.80;99.90
20654;DHT22;21083;50.898;4.902;2023-03-04T11:52:21;10.10;99.90
20654;DHT22;21083;50.898;4.902;2023-03-04T11:55:03;9.80;99.90
20654;DHT22;21083;50.898;4.902;2023-03-04T11:57:39;9.60;99.90
20654;DHT22;21083;50.898;4.902;2023-03-04T12:00:21;9.60;99.90
20654;DHT22;21083;50.898;4.902;2023-03-04T12:05:51;9.50;99.90
20654;DHT22;21083;50.898;4.902;2023-03-04T12:08:31;9.30;99.90
20654;DHT22;21083;50.898;4.902;2023-03-04T12:11:02;9.40;99.90
20654;DHT22;21083;50.898;4.902;2023-03-04T12:13:47;9.40;99.90
20654;DHT22;21083;50.898;4.902;2023-03-04T12:16:35;9.30;99.90
20654;DHT22;21083;50.898;4.902;2023-03-04T12:19:15;9.20;99.90
20654;DHT22;21083;50.898;4.902;2023-03-04T12:22:02;9.30;99.90
20654;DHT22;21083;50.898;4.902;2023-03-04T12:24:47;9.30;99.90
20654;DHT22;21083;50.898;4.902;2023-03-04T12:27:23;9.30;99.90
20654;DHT22;21083;50.898;4.902;2023-03-04T12:29:57;9.50;99.90
20654;DHT22;21083;50.898;4.902;2023-03-04T12:32:35;9.50;99.90
20654;DHT22;21083;50.898;4.902;2023-03-04T12:35:29;9.50;99.90
20654;DHT22;21083;50.898;4.902;2023-03-04T12:38:20;9.40;99.90
20654;DHT22;21083;50.898;4.902;2023-03-04T12:41:00;9.50;99.90
20654;DHT22;21083;50.898;4.902;2023-03-04T12:43:40;9.40;99.90
20654;DHT22;21083;50.898;4.902;2023-03-04T12:46:29;9.40;99.90
20654;DHT22;21083;50.898;4.902;2023-03-04T12:49:14;9.50;99.90
20654;DHT22;21083;50.898;4.902;2023-03-04T12:51:48;9.40;99.90
20654;DHT22;21083;50.898;4.902;2023-03-04T12:54:26;9.30;99.90
20654;DHT22;21083;50.898;4.902;2023-03-04T12:56:57;9.20;99.90
20654;DHT22;21083;50.898;4.902;2023-03-04T12:59:26;9.30;99.90
20654;DHT22;21083;50.898;4.902;2023-03-04T13:02:03;9.00;99.90
20654;DHT22;21083;50.898;4.902;2023-03-04T13:04:40;9.10;99.90
20654;DHT22;21083;50.898;4.902;2023-03-04T13:07:15;9.40;99.90
20654;DHT22;21083;50.898;4.902;2023-03-04T13:09:51;9.20;99.90
20654;DHT22;21083;50.898;4.902;2023-03-04T13:12:22;9.40;99.90
20654;DHT22;21083;50.898;4.902;2023-03-04T13:15:25;9.60;99.90
20654;DHT22;21083;50.898;4.902;2023-03-04T13:17:53;9.70;99.90
20654;DHT22;21083;50.898;4.902;2023-03-04T13:20:32;9.90;99.90
20654;DHT22;21083;50.898;4.902;2023-03-04T13:23:00;9.90;99.90
20654;DHT22;21083;50.898;4.902;2023-03-04T13:25:36;9.90;99.90
20654;DHT22;21083;50.898;4.902;2023-03-04T13:28:20;9.80;99.90
20654;DHT22;21083;50.898;4.902;2023-03-04T13:31:15;9.60;99.90
20654;DHT22;21083;50.898;4.902;2023-03-04T13:34:00;9.10;99.90
20654;DHT22;21083;50.898;4.902;2023-03-04T13:39:28;8.70;99.90
20654;DHT22;21083;50.898;4.902;2023-03-04T13:41:58;8.90;99.90
20654;DHT22;21083;50.898;4.902;2023-03-04T13:47:39;8.80;99.90
20654;DHT22;21083;50.898;4.902;2023-03-04T13:50:31;8.90;99.90
20654;DHT22;21083;50.898;4.902;2023-03-04T13:53:28;8.80;99.90
20654;DHT22;21083;50.898;4.902;2023-03-04T13:59:13;9.10;99.90
20654;DHT22;21083;50.898;4.902;2023-03-04T14:02:00;9.10;99.90
20654;DHT22;21083;50.898;4.902;2023-03-04T14:04:30;9.10;99.90
20654;DHT22;21083;50.898;4.902;2023-03-04T14:06:59;9.20;99.90
20654;DHT22;21083;50.898;4.902;2023-03-04T14:09:28;9.30;99.90
20654;DHT22;21083;50.898;4.902;2023-03-04T14:11:57;9.10;99.90
20654;DHT22;21083;50.898;4.902;2023-03-04T14:14:27;9.20;99.90
20654;DHT22;21083;50.898;4.902;2023-03-04T14:16:57;9.10;99.90
20654;DHT22;21083;50.898;4.902;2023-03-04T14:19:27;9.10;99.90
20654;DHT22;21083;50.898;4.902;2023-03-04T14:21:55;8.90;99.90
20654;DHT22;21083;50.898;4.902;2023-03-04T14:24:23;9.00;99.90
20654;DHT22;21083;50.898;4.902;2023-03-04T14:27:03;9.00;99.90
20654;DHT22;21083;50.898;4.902;2023-03-04T14:29:31;9.10;99.90
20654;DHT22;21083;50.898;4.902;2023-03-04T14:31:59;9.30;99.90
20654;DHT22;21083;50.898;4.902;2023-03-04T14:34:29;9.40;99.90
20654;DHT22;21083;50.898;4.902;2023-03-04T14:36:58;9.30;99.90
20654;DHT22;21083;50.898;4.902;2023-03-04T14:39:26;9.20;99.90
20654;DHT22;21083;50.898;4.902;2023-03-04T14:41:58;9.10;99.90
20654;DHT22;21083;50.898;4.902;2023-03-04T14:44:31;9.10;99.90
20654;DHT22;21083;50.898;4.902;2023-03-04T14:47:08;9.10;99.90
20654;DHT22;21083;50.898;4.902;2023-03-04T14:49:37;9.20;99.90
20654;DHT22;21083;50.898;4.902;2023-03-04T14:52:06;9.20;99.90
20654;DHT22;21083;50.898;4.902;2023-03-04T14:54:34;9.40;99.90
20654;DHT22;21083;50.898;4.902;2023-03-04T14:57:20;9.00;99.90
20654;DHT22;21083;50.898;4.902;2023-03-04T14:59:50;8.90;99.90
20654;DHT22;21083;50.898;4.902;2023-03-04T15:02:22;8.90;99.90
20654;DHT22;21083;50.898;4.902;2023-03-04T15:04:54;8.80;99.90
20654;DHT22;21083;50.898;4.902;2023-03-04T15:07:28;8.50;99.90
20654;DHT22;21083;50.898;4.902;2023-03-04T15:09:57;8.40;99.90
20654;DHT22;21083;50.898;4.902;2023-03-04T15:12:26;8.30;99.90
20654;DHT22;21083;50.898;4.902;2023-03-04T15:14:56;8.20;99.90
20654;DHT22;21083;50.898;4.902;2023-03-04T15:17:31;8.20;99.90
20654;DHT22;21083;50.898;4.902;2023-03-04T15:20:18;8.30;99.90
20654;DHT22;21083;50.898;4.902;2023-03-04T15:23:03;8.20;99.90
20654;DHT22;21083;50.898;4.902;2023-03-04T15:25:32;8.30;99.90
20654;DHT22;21083;50.898;4.902;2023-03-04T15:27:59;8.20;99.90
20654;DHT22;21083;50.898;4.902;2023-03-04T15:30:31;8.20;99.90
20654;DHT22;21083;50.898;4.902;2023-03-04T15:32:58;8.20;99.90
20654;DHT22;21083;50.898;4.902;2023-03-04T15:35:28;8.30;99.90
20654;DHT22;21083;50.898;4.902;2023-03-04T15:37:55;8.40;99.90
20654;DHT22;21083;50.898;4.902;2023-03-04T15:40:26;8.40;99.90
20654;DHT22;21083;50.898;4.902;2023-03-04T15:42:54;8.20;99.90
20654;DHT22;21083;50.898;4.902;2023-03-04T15:45:24;8.30;99.90
20654;DHT22;21083;50.898;4.902;2023-03-04T15:47:53;8.50;99.90
20654;DHT22;21083;50.898;4.902;2023-03-04T15:50:20;8.20;99.90
20654;DHT22;21083;50.898;4.902;2023-03-04T15:52:47;8.10;99.90
20654;DHT22;21083;50.898;4.902;2023-03-04T15:55:16;8.10;99.90
20654;DHT22;21083;50.898;4.902;2023-03-04T15:57:45;8.20;99.90
20654;DHT22;21083;50.898;4.902;2023-03-04T16:00:13;8.20;99.90
20654;DHT22;21083;50.898;4.902;2023-03-04T16:02:40;8.10;99.90
20654;DHT22;21083;50.898;4.902;2023-03-04T16:05:09;8.10;99.90
20654;DHT22;21083;50.898;4.902;2023-03-04T16:07:37;8.10;99.90
20654;DHT22;21083;50.898;4.902;2023-03-04T16:10:12;8.10;99.90
20654;DHT22;21083;50.898;4.902;2023-03-04T16:12:41;8.10;99.90
20654;DHT22;21083;50.898;4.902;2023-03-04T16:15:13;8.10;99.90
20654;DHT22;21083;50.898;4.902;2023-03-04T16:17:40;8.10;99.90
20654;DHT22;21083;50.898;4.902;2023-03-04T16:20:13;8.10;99.90